sensor_id;sensor_type;location;lat;lon;timestamp;pressure;altitude;pressure_sealevel;temperature;humidity
72110;BME280;59983;52.010;5.420;2023-02-28T00:00:37;103198.28;;;2.97;76.89
72110;BME280;59983;52.010;5.420;2023-02-28T00:03:04;103200.72;;;2.98;76.83
72110;BME280;59983;52.010;5.420;2023-02-28T00:05:31;103197.72;;;2.95;77.03
72110;BME280;59983;52.010;5.420;2023-02-28T00:07:58;103197.47;;;2.96;77.89
72110;BME280;59983;52.010;5.420;2023-02-28T00:10:27;103198.97;;;3.04;77.66
72110;BME280;59983;52.010;5.420;2023-02-28T00:12:56;103189.19;;;2.98;77.34
72110;BME280;59983;52.010;5.420;2023-02-28T00:15:25;103195.59;;;2.97;77.92
72110;BME280;59983;52.010;5.420;2023-02-28T00:17:51;103196.66;;;2.96;78.13
72110;BME280;59983;52.010;5.420;2023-02-28T00:20:18;103199.66;;;2.99;78.64
72110;BME280;59983;52.010;5.420;2023-02-28T00:22:47;103202.47;;;3.04;78.36
72110;BME280;59983;52.010;5.420;2023-02-28T00:25:17;103202.81;;;3.08;78.58
72110;BME280;59983;52.010;5.420;2023-02-28T00:27:44;103204.56;;;3.14;78.22
72110;BME280;59983;52.010;5.420;2023-02-28T00:30:14;103203.63;;;3.20;78.28
72110;BME280;59983;52.010;5.420;2023-02-28T00:32:41;103200.38;;;3.18;78.38
72110;BME280;59983;52.010;5.420;2023-02-28T00:35:09;103196.03;;;3.29;78.64
72110;BME280;59983;52.010;5.420;2023-02-28T00:37:35;103201.38;;;3.29;78.93
72110;BME280;59983;52.010;5.420;2023-02-28T00:40:03;103208.13;;;3.31;79.07
72110;BME280;59983;52.010;5.420;2023-02-28T00:42:34;103199.59;;;3.46;78.62
72110;BME280;59983;52.010;5.420;2023-02-28T00:45:01;103199.09;;;3.49;78.29
72110;BME280;59983;52.010;5.420;2023-02-28T00:47:30;103193.34;;;3.57;77.80
72110;BME280;59983;52.010;5.420;2023-02-28T00:49:57;103198.16;;;3.55;78.32
72110;BME280;59983;52.010;5.420;2023-02-28T00:52:24;103193.72;;;3.49;78.41
72110;BME280;59983;52.010;5.420;2023-02-28T00:54:50;103183.81;;;3.50;78.63
72110;BME280;59983;52.010;5.420;2023-02-28T00:57:17;103190.09;;;3.55;79.15
72110;BME280;59983;52.010;5.420;2023-02-28T00:59:44;103192.28;;;3.58;78.78
72110;BME280;59983;52.010;5.420;2023-02-28T01:02:10;103196.84;;;3.58;78.45
72110;BME280;59983;52.010;5.420;2023-02-28T01:04:37;103201.97;;;3.59;79.19
72110;BME280;59983;52.010;5.420;2023-02-28T01:07:04;103203.59;;;3.60;78.26
72110;BME280;59983;52.010;5.420;2023-02-28T01:09:30;103204.19;;;3.62;78.39
72110;BME280;59983;52.010;5.420;2023-02-28T01:11:57;103202.31;;;3.63;78.17
72110;BME280;59983;52.010;5.420;2023-02-28T01:14:23;103199.25;;;3.71;78.69
72110;BME280;59983;52.010;5.420;2023-02-28T01:16:50;103207.38;;;3.76;78.53
72110;BME280;59983;52.010;5.420;2023-02-28T01:19:17;103204.94;;;3.75;78.45
72110;BME280;59983;52.010;5.420;2023-02-28T01:21:44;103196.34;;;3.73;78.52
72110;BME280;59983;52.010;5.420;2023-02-28T01:24:10;103195.84;;;3.76;78.13
72110;BME280;59983;52.010;5.420;2023-02-28T01:26:37;103193.72;;;3.78;78.73
72110;BME280;59983;52.010;5.420;2023-02-28T01:29:04;103195.94;;;3.81;78.09
72110;BME280;59983;52.010;5.420;2023-02-28T01:31:30;103188.84;;;3.75;78.30
72110;BME280;59983;52.010;5.420;2023-02-28T01:33:57;103186.72;;;3.77;78.81
72110;BME280;59983;52.010;5.420;2023-02-28T01:36:24;103193.41;;;3.74;78.47
72110;BME280;59983;52.010;5.420;2023-02-28T01:38:51;103178.59;;;3.72;78.39
72110;BME280;59983;52.010;5.420;2023-02-28T01:41:24;103182.28;;;3.82;78.93
72110;BME280;59983;52.010;5.420;2023-02-28T01:44:55;103178.28;;;3.85;78.68
72110;BME280;59983;52.010;5.420;2023-02-28T01:46:54;103182.28;;;3.82;78.33
72110;BME280;59983;52.010;5.420;2023-02-28T01:49:20;103172.81;;;3.80;78.64
72110;BME280;59983;52.010;5.420;2023-02-28T01:51:49;103185.09;;;3.76;78.85
72110;BME280;59983;52.010;5.420;2023-02-28T01:54:22;103184.78;;;3.72;79.39
72110;BME280;59983;52.010;5.420;2023-02-28T01:57:06;103183.22;;;3.76;78.97
72110;BME280;59983;52.010;5.420;2023-02-28T01:59:42;103186.72;;;3.77;79.21
72110;BME280;59983;52.010;5.420;2023-02-28T02:02:13;103183.00;;;3.78;78.72
72110;BME280;59983;52.010;5.420;2023-02-28T02:05:00;103171.44;;;3.77;79.10
72110;BME280;59983;52.010;5.420;2023-02-28T02:07:35;103172.09;;;3.84;79.06
72110;BME280;59983;52.010;5.420;2023-02-28T02:10:06;103160.97;;;3.92;78.90
72110;BME280;59983;52.010;5.420;2023-02-28T02:13:11;103164.97;;;3.90;78.44
72110;BME280;59983;52.010;5.420;2023-02-28T02:15:48;103157.63;;;3.85;79.28
72110;BME280;59983;52.010;5.420;2023-02-28T02:18:25;103157.38;;;3.87;79.23
72110;BME280;59983;52.010;5.420;2023-02-28T02:26:50;103165.78;;;3.90;79.55
72110;BME280;59983;52.010;5.420;2023-02-28T02:29:45;103155.59;;;3.92;79.32
72110;BME280;59983;52.010;5.420;2023-02-28T02:32:18;103165.19;;;3.88;79.78
72110;BME280;59983;52.010;5.420;2023-02-28T02:34:56;103154.22;;;3.90;79.51
72110;BME280;59983;52.010;5.420;2023-02-28T02:37:52;103165.69;;;4.02;79.46
72110;BME280;59983;52.010;5.420;2023-02-28T02:40:29;103170.56;;;4.05;79.31
72110;BME280;59983;52.010;5.420;2023-02-28T02:43:04;103175.13;;;4.05;79.22
72110;BME280;59983;52.010;5.420;2023-02-28T02:45:46;103161.88;;;4.15;79.76
72110;BME280;59983;52.010;5.420;2023-02-28T02:48:19;103171.66;;;4.21;79.05
72110;BME280;59983;52.010;5.420;2023-02-28T02:50:54;103172.94;;;4.18;79.13
72110;BME280;59983;52.010;5.420;2023-02-28T02:53:27;103168.97;;;4.21;78.51
72110;BME280;59983;52.010;5.420;2023-02-28T02:55:57;103174.00;;;4.17;78.29
72110;BME280;59983;52.010;5.420;2023-02-28T02:58:29;103174.31;;;4.21;78.30
72110;BME280;59983;52.010;5.420;2023-02-28T03:01:00;103176.28;;;4.09;77.72
72110;BME280;59983;52.010;5.420;2023-02-28T03:03:29;103167.16;;;4.10;78.17
72110;BME280;59983;52.010;5.420;2023-02-28T03:05:59;103167.56;;;4.02;78.92
72110;BME280;59983;52.010;5.420;2023-02-28T03:08:28;103168.69;;;4.06;78.78
72110;BME280;59983;52.010;5.420;2023-02-28T03:10:57;103177.97;;;4.15;79.18
72110;BME280;59983;52.010;5.420;2023-02-28T03:19:31;103182.47;;;4.09;78.84
72110;BME280;59983;52.010;5.420;2023-02-28T03:27:24;103191.00;;;4.06;79.03
72110;BME280;59983;52.010;5.420;2023-02-28T03:32:42;103185.22;;;3.97;80.18
72110;BME280;59983;52.010;5.420;2023-02-28T03:35:17;103187.69;;;3.99;80.41
72110;BME280;59983;52.010;5.420;2023-02-28T03:37:53;103178.97;;;4.09;79.64
72110;BME280;59983;52.010;5.420;2023-02-28T03:40:23;103180.84;;;4.08;79.11
72110;BME280;59983;52.010;5.420;2023-02-28T03:42:55;103178.56;;;4.00;79.59
72110;BME280;59983;52.010;5.420;2023-02-28T03:45:28;103189.06;;;4.02;80.04
72110;BME280;59983;52.010;5.420;2023-02-28T03:48:16;103184.09;;;4.10;79.80
72110;BME280;59983;52.010;5.420;2023-02-28T03:50:48;103182.22;;;4.11;79.47
72110;BME280;59983;52.010;5.420;2023-02-28T03:53:27;103187.84;;;4.09;80.25
72110;BME280;59983;52.010;5.420;2023-02-28T03:55:59;103192.66;;;4.07;79.95
72110;BME280;59983;52.010;5.420;2023-02-28T04:03:59;103187.50;;;4.22;78.30
72110;BME280;59983;52.010;5.420;2023-02-28T04:06:25;103190.28;;;4.28;78.15
72110;BME280;59983;52.010;5.420;2023-02-28T04:08:52;103198.19;;;4.34;76.67
72110;BME280;59983;52.010;5.420;2023-02-28T04:11:32;103192.16;;;4.27;76.02
72110;BME280;59983;52.010;5.420;2023-02-28T04:14:02;103192.22;;;4.32;75.72
72110;BME280;59983;52.010;5.420;2023-02-28T04:16:32;103198.84;;;4.24;74.89
72110;BME280;59983;52.010;5.420;2023-02-28T04:19:03;103200.28;;;4.32;75.25
72110;BME280;59983;52.010;5.420;2023-02-28T04:21:36;103192.41;;;4.25;75.31
72110;BME280;59983;52.010;5.420;2023-02-28T04:24:03;103187.50;;;4.22;74.59
72110;BME280;59983;52.010;5.420;2023-02-28T04:26:35;103191.75;;;4.18;74.58
72110;BME280;59983;52.010;5.420;2023-02-28T04:29:04;103197.63;;;4.15;74.25
72110;BME280;59983;52.010;5.420;2023-02-28T04:31:31;103201.94;;;4.16;74.21
72110;BME280;59983;52.010;5.420;2023-02-28T04:33:59;103208.13;;;4.17;74.92
72110;BME280;59983;52.010;5.420;2023-02-28T04:36:26;103208.38;;;4.15;75.19
72110;BME280;59983;52.010;5.420;2023-02-28T04:38:53;103203.38;;;4.07;75.26
72110;BME280;59983;52.010;5.420;2023-02-28T04:41:21;103207.78;;;4.13;74.96
72110;BME280;59983;52.010;5.420;2023-02-28T04:43:47;103203.22;;;4.14;74.92
72110;BME280;59983;52.010;5.420;2023-02-28T04:46:14;103218.75;;;4.12;74.80
72110;BME280;59983;52.010;5.420;2023-02-28T04:48:41;103217.63;;;4.08;74.89
72110;BME280;59983;52.010;5.420;2023-02-28T04:51:13;103218.44;;;4.08;75.53
72110;BME280;59983;52.010;5.420;2023-02-28T04:53:41;103211.88;;;4.16;75.22
72110;BME280;59983;52.010;5.420;2023-02-28T04:56:11;103210.03;;;4.05;75.38
72110;BME280;59983;52.010;5.420;2023-02-28T04:58:38;103211.34;;;4.02;76.09
72110;BME280;59983;52.010;5.420;2023-02-28T05:01:28;103213.63;;;4.10;75.69
72110;BME280;59983;52.010;5.420;2023-02-28T05:03:58;103211.66;;;4.06;75.33
72110;BME280;59983;52.010;5.420;2023-02-28T05:06:27;103216.63;;;3.97;75.72
72110;BME280;59983;52.010;5.420;2023-02-28T05:08:53;103221.16;;;3.96;76.05
72110;BME280;59983;52.010;5.420;2023-02-28T05:11:24;103216.78;;;3.90;76.51
72110;BME280;59983;52.010;5.420;2023-02-28T05:13:52;103204.06;;;3.86;76.46
72110;BME280;59983;52.010;5.420;2023-02-28T05:16:19;103212.31;;;3.96;76.15
72110;BME280;59983;52.010;5.420;2023-02-28T05:18:46;103209.06;;;3.94;76.56
72110;BME280;59983;52.010;5.420;2023-02-28T05:23:52;103205.63;;;3.82;76.60
72110;BME280;59983;52.010;5.420;2023-02-28T05:26:19;103200.09;;;3.88;76.53
72110;BME280;59983;52.010;5.420;2023-02-28T05:28:46;103208.00;;;3.95;76.30
72110;BME280;59983;52.010;5.420;2023-02-28T05:31:13;103202.38;;;3.96;76.22
72110;BME280;59983;52.010;5.420;2023-02-28T05:33:40;103202.47;;;4.02;76.40
72110;BME280;59983;52.010;5.420;2023-02-28T05:36:06;103204.25;;;3.96;75.74
72110;BME280;59983;52.010;5.420;2023-02-28T05:38:33;103192.94;;;3.94;76.09
72110;BME280;59983;52.010;5.420;2023-02-28T05:41:05;103194.63;;;3.83;75.89
72110;BME280;59983;52.010;5.420;2023-02-28T05:43:32;103196.66;;;3.76;76.60
72110;BME280;59983;52.010;5.420;2023-02-28T05:46:02;103189.16;;;3.78;75.79
72110;BME280;59983;52.010;5.420;2023-02-28T05:48:29;103191.34;;;3.64;76.26
72110;BME280;59983;52.010;5.420;2023-02-28T05:50:57;103186.13;;;3.58;76.74
72110;BME280;59983;52.010;5.420;2023-02-28T05:53:23;103193.59;;;3.56;76.46
72110;BME280;59983;52.010;5.420;2023-02-28T05:55:50;103202.72;;;3.55;77.59
72110;BME280;59983;52.010;5.420;2023-02-28T05:58:16;103202.16;;;3.69;77.75
72110;BME280;59983;52.010;5.420;2023-02-28T06:00:43;103205.09;;;3.68;77.11
72110;BME280;59983;52.010;5.420;2023-02-28T06:03:09;103198.41;;;3.70;78.10
72110;BME280;59983;52.010;5.420;2023-02-28T06:05:36;103203.19;;;3.80;77.21
72110;BME280;59983;52.010;5.420;2023-02-28T06:08:02;103199.34;;;3.76;77.85
72110;BME280;59983;52.010;5.420;2023-02-28T06:10:29;103196.97;;;3.80;77.14
72110;BME280;59983;52.010;5.420;2023-02-28T06:12:59;103184.16;;;3.82;77.14
72110;BME280;59983;52.010;5.420;2023-02-28T06:15:26;103184.03;;;3.77;77.50
72110;BME280;59983;52.010;5.420;2023-02-28T06:17:53;103188.09;;;3.79;76.93
72110;BME280;59983;52.010;5.420;2023-02-28T06:20:19;103190.16;;;3.72;77.45
72110;BME280;59983;52.010;5.420;2023-02-28T06:22:46;103197.59;;;3.70;77.02
72110;BME280;59983;52.010;5.420;2023-02-28T06:25:12;103192.84;;;3.72;77.58
72110;BME280;59983;52.010;5.420;2023-02-28T06:27:39;103198.84;;;3.79;77.91
72110;BME280;59983;52.010;5.420;2023-02-28T06:30:06;103190.72;;;3.74;77.89
72110;BME280;59983;52.010;5.420;2023-02-28T06:32:33;103188.28;;;3.73;77.87
72110;BME280;59983;52.010;5.420;2023-02-28T06:34:59;103199.81;;;3.73;77.41
72110;BME280;59983;52.010;5.420;2023-02-28T06:37:26;103197.22;;;3.78;78.40
72110;BME280;59983;52.010;5.420;2023-02-28T06:39:54;103208.78;;;3.79;77.88
72110;BME280;59983;52.010;5.420;2023-02-28T06:42:23;103202.84;;;3.77;77.20
72110;BME280;59983;52.010;5.420;2023-02-28T06:44:55;103200.06;;;3.72;77.94
72110;BME280;59983;52.010;5.420;2023-02-28T06:47:22;103205.09;;;3.68;77.85
72110;BME280;59983;52.010;5.420;2023-02-28T06:49:49;103212.09;;;3.69;78.29
72110;BME280;59983;52.010;5.420;2023-02-28T06:52:15;103201.53;;;3.79;78.26
72110;BME280;59983;52.010;5.420;2023-02-28T06:54:42;103207.00;;;3.84;78.08
72110;BME280;59983;52.010;5.420;2023-02-28T06:57:09;103207.00;;;3.84;77.92
72110;BME280;59983;52.010;5.420;2023-02-28T06:59:35;103208.78;;;3.79;78.01
72110;BME280;59983;52.010;5.420;2023-02-28T07:02:02;103210.06;;;3.76;78.97
72110;BME280;59983;52.010;5.420;2023-02-28T07:04:29;103211.03;;;3.70;78.78
72110;BME280;59983;52.010;5.420;2023-02-28T07:06:55;103221.44;;;3.66;79.02
72110;BME280;59983;52.010;5.420;2023-02-28T07:09:23;103219.56;;;3.67;79.35
72110;BME280;59983;52.010;5.420;2023-02-28T07:11:50;103229.25;;;3.68;79.17
72110;BME280;59983;52.010;5.420;2023-02-28T07:14:16;103231.06;;;3.79;78.91
72110;BME280;59983;52.010;5.420;2023-02-28T07:16:43;103227.09;;;3.82;79.13
72110;BME280;59983;52.010;5.420;2023-02-28T07:19:11;103221.72;;;3.82;78.50
72110;BME280;59983;52.010;5.420;2023-02-28T07:21:38;103231.06;;;3.79;79.22
72110;BME280;59983;52.010;5.420;2023-02-28T07:24:04;103237.91;;;3.87;79.39
72110;BME280;59983;52.010;5.420;2023-02-28T07:26:31;103229.41;;;3.90;79.04
72110;BME280;59983;52.010;5.420;2023-02-28T07:29:00;103234.75;;;3.90;79.49
72110;BME280;59983;52.010;5.420;2023-02-28T07:31:27;103237.63;;;4.00;79.50
72110;BME280;59983;52.010;5.420;2023-02-28T07:33:54;103237.88;;;3.98;79.41
72110;BME280;59983;52.010;5.420;2023-02-28T07:36:22;103234.69;;;4.02;79.06
72110;BME280;59983;52.010;5.420;2023-02-28T07:38:49;103226.81;;;4.12;78.94
72110;BME280;59983;52.010;5.420;2023-02-28T07:41:18;103237.66;;;4.17;78.77
72110;BME280;59983;52.010;5.420;2023-02-28T07:43:45;103237.47;;;4.23;78.36
72110;BME280;59983;52.010;5.420;2023-02-28T07:46:14;103246.22;;;4.31;78.67
72110;BME280;59983;52.010;5.420;2023-02-28T07:48:44;103252.41;;;4.31;79.06
72110;BME280;59983;52.010;5.420;2023-02-28T07:51:11;103248.75;;;4.37;78.50
72110;BME280;59983;52.010;5.420;2023-02-28T07:53:37;103253.31;;;4.37;78.24
72110;BME280;59983;52.010;5.420;2023-02-28T07:56:04;103241.50;;;4.38;77.90
72110;BME280;59983;52.010;5.420;2023-02-28T07:58:31;103240.94;;;4.36;77.40
72110;BME280;59983;52.010;5.420;2023-02-28T08:01:07;103248.66;;;4.32;77.29
72110;BME280;59983;52.010;5.420;2023-02-28T08:03:35;103255.25;;;4.41;76.69
72110;BME280;59983;52.010;5.420;2023-02-28T08:06:06;103240.69;;;4.54;76.68
72110;BME280;59983;52.010;5.420;2023-02-28T08:08:33;103258.59;;;4.65;75.35
72110;BME280;59983;52.010;5.420;2023-02-28T08:11:01;103260.97;;;4.62;73.72
72110;BME280;59983;52.010;5.420;2023-02-28T08:13:29;103259.81;;;4.74;74.51
72110;BME280;59983;52.010;5.420;2023-02-28T08:15:56;103265.19;;;4.91;74.33
72110;BME280;59983;52.010;5.420;2023-02-28T08:18:23;103256.44;;;5.01;73.71
72110;BME280;59983;52.010;5.420;2023-02-28T08:20:49;103257.00;;;5.03;71.63
72110;BME280;59983;52.010;5.420;2023-02-28T08:23:16;103266.22;;;5.07;71.18
72110;BME280;59983;52.010;5.420;2023-02-28T08:25:42;103262.22;;;5.09;70.83
72110;BME280;59983;52.010;5.420;2023-02-28T08:28:09;103258.88;;;5.02;70.06
72110;BME280;59983;52.010;5.420;2023-02-28T08:30:35;103269.63;;;5.02;70.33
72110;BME280;59983;52.010;5.420;2023-02-28T08:33:02;103266.78;;;5.09;70.31
72110;BME280;59983;52.010;5.420;2023-02-28T08:35:29;103261.72;;;5.13;69.04
72110;BME280;59983;52.010;5.420;2023-02-28T08:37:55;103260.97;;;5.17;69.55
72110;BME280;59983;52.010;5.420;2023-02-28T08:40:21;103258.84;;;5.19;68.32
72110;BME280;59983;52.010;5.420;2023-02-28T08:42:48;103248.41;;;5.23;67.63
72110;BME280;59983;52.010;5.420;2023-02-28T08:45:15;103246.03;;;5.26;67.46
72110;BME280;59983;52.010;5.420;2023-02-28T08:47:42;103257.00;;;5.42;66.60
72110;BME280;59983;52.010;5.420;2023-02-28T08:50:09;103262.19;;;5.48;65.26
72110;BME280;59983;52.010;5.420;2023-02-28T08:52:35;103258.38;;;5.66;64.65
72110;BME280;59983;52.010;5.420;2023-02-28T08:55:02;103256.53;;;5.93;63.53
72110;BME280;59983;52.010;5.420;2023-02-28T08:57:28;103243.78;;;6.11;62.93
72110;BME280;59983;52.010;5.420;2023-02-28T08:59:55;103240.44;;;6.31;62.06
72110;BME280;59983;52.010;5.420;2023-02-28T09:02:21;103242.97;;;6.42;60.40
72110;BME280;59983;52.010;5.420;2023-02-28T09:04:48;103241.41;;;6.46;58.08
72110;BME280;59983;52.010;5.420;2023-02-28T09:07:14;103246.72;;;6.41;54.68
72110;BME280;59983;52.010;5.420;2023-02-28T09:09:41;103249.81;;;6.23;51.96
72110;BME280;59983;52.010;5.420;2023-02-28T09:12:27;103253.31;;;6.23;52.84
72110;BME280;59983;52.010;5.420;2023-02-28T09:14:57;103247.63;;;6.20;50.85
72110;BME280;59983;52.010;5.420;2023-02-28T09:17:24;103255.13;;;6.13;51.51
72110;BME280;59983;52.010;5.420;2023-02-28T09:19:56;103250.88;;;6.22;51.90
72110;BME280;59983;52.010;5.420;2023-02-28T09:22:23;103250.78;;;6.44;51.88
72110;BME280;59983;52.010;5.420;2023-02-28T09:24:49;103252.53;;;6.60;50.72
72110;BME280;59983;52.010;5.420;2023-02-28T09:27:16;103260.38;;;6.62;50.12
72110;BME280;59983;52.010;5.420;2023-02-28T09:29:43;103264.31;;;6.49;49.29
72110;BME280;59983;52.010;5.420;2023-02-28T09:32:09;103258.47;;;6.62;50.17
72110;BME280;59983;52.010;5.420;2023-02-28T09:34:37;103265.81;;;6.67;49.59
72110;BME280;59983;52.010;5.420;2023-02-28T09:37:03;103269.06;;;6.69;49.57
72110;BME280;59983;52.010;5.420;2023-02-28T09:39:30;103265.53;;;6.68;50.92
72110;BME280;59983;52.010;5.420;2023-02-28T09:41:57;103256.53;;;6.90;50.83
72110;BME280;59983;52.010;5.420;2023-02-28T09:44:29;103266.00;;;6.97;50.71
72110;BME280;59983;52.010;5.420;2023-02-28T09:47:01;103260.38;;;7.04;49.05
72110;BME280;59983;52.010;5.420;2023-02-28T09:49:37;103262.22;;;6.93;47.13
72110;BME280;59983;52.010;5.420;2023-02-28T09:52:14;103259.41;;;6.78;46.63
72110;BME280;59983;52.010;5.420;2023-02-28T09:54:43;103263.63;;;7.06;46.73
72110;BME280;59983;52.010;5.420;2023-02-28T09:57:32;103253.94;;;7.10;46.28
72110;BME280;59983;52.010;5.420;2023-02-28T10:02:50;103257.88;;;7.39;45.27
72110;BME280;59983;52.010;5.420;2023-02-28T10:05:22;103262.22;;;7.46;45.90
72110;BME280;59983;52.010;5.420;2023-02-28T10:07:58;103253.56;;;7.49;44.42
72110;BME280;59983;52.010;5.420;2023-02-28T10:10:33;103253.78;;;7.32;44.44
72110;BME280;59983;52.010;5.420;2023-02-28T10:13:05;103245.94;;;7.30;43.72
72110;BME280;59983;52.010;5.420;2023-02-28T10:15:34;103246.75;;;7.31;43.23
72110;BME280;59983;52.010;5.420;2023-02-28T10:18:04;103247.56;;;7.26;42.21
72110;BME280;59983;52.010;5.420;2023-02-28T10:20:39;103242.75;;;7.33;43.94
72110;BME280;59983;52.010;5.420;2023-02-28T10:25:58;103234.41;;;7.50;43.74
72110;BME280;59983;52.010;5.420;2023-02-28T10:28:26;103237.16;;;7.60;43.81
72110;BME280;59983;52.010;5.420;2023-02-28T10:30:55;103233.66;;;7.65;43.59
72110;BME280;59983;52.010;5.420;2023-02-28T10:33:24;103239.63;;;7.72;43.92
72110;BME280;59983;52.010;5.420;2023-02-28T10:35:51;103235.56;;;7.70;43.96
72110;BME280;59983;52.010;5.420;2023-02-28T10:38:23;103242.03;;;7.63;42.61
72110;BME280;59983;52.010;5.420;2023-02-28T10:40:50;103239.88;;;7.65;43.59
72110;BME280;59983;52.010;5.420;2023-02-28T10:43:21;103238.56;;;7.78;43.79
72110;BME280;59983;52.010;5.420;2023-02-28T10:45:58;103241.25;;;7.73;44.46
72110;BME280;59983;52.010;5.420;2023-02-28T10:48:45;103236.69;;;7.79;43.53
72110;BME280;59983;52.010;5.420;2023-02-28T10:51:18;103242.63;;;7.81;43.17
72110;BME280;59983;52.010;5.420;2023-02-28T10:56:27;103234.22;;;7.77;40.44
72110;BME280;59983;52.010;5.420;2023-02-28T11:03:59;103224.50;;;7.71;42.38
72110;BME280;59983;52.010;5.420;2023-02-28T11:06:29;103216.38;;;7.66;42.18
72110;BME280;59983;52.010;5.420;2023-02-28T11:09:01;103210.75;;;7.78;42.43
72110;BME280;59983;52.010;5.420;2023-02-28T11:11:30;103214.25;;;7.93;43.04
72110;BME280;59983;52.010;5.420;2023-02-28T11:14:20;103201.28;;;8.01;43.03
72110;BME280;59983;52.010;5.420;2023-02-28T11:16:48;103201.84;;;8.03;43.34
72110;BME280;59983;52.010;5.420;2023-02-28T11:19:22;103201.03;;;8.17;43.08
72110;BME280;59983;52.010;5.420;2023-02-28T11:22:01;103197.78;;;8.10;42.00
72110;BME280;59983;52.010;5.420;2023-02-28T11:24:35;103195.91;;;8.26;42.29
72110;BME280;59983;52.010;5.420;2023-02-28T11:27:03;103201.06;;;8.43;42.55
72110;BME280;59983;52.010;5.420;2023-02-28T11:29:32;103196.47;;;8.43;42.64
72110;BME280;59983;52.010;5.420;2023-02-28T11:34:38;103186.72;;;8.42;42.29
72110;BME280;59983;52.010;5.420;2023-02-28T11:37:11;103187.53;;;8.53;42.11
72110;BME280;59983;52.010;5.420;2023-02-28T11:39:38;103175.34;;;8.61;41.22
72110;BME280;59983;52.010;5.420;2023-02-28T11:44:52;103172.88;;;8.64;41.96
72110;BME280;59983;52.010;5.420;2023-02-28T12:03:03;103165.91;;;9.23;41.14
72110;BME280;59983;52.010;5.420;2023-02-28T12:05:45;103169.16;;;9.25;40.94
72110;BME280;59983;52.010;5.420;2023-02-28T12:13:24;103163.97;;;9.33;41.93
72110;BME280;59983;52.010;5.420;2023-02-28T12:23:52;103146.19;;;9.61;40.80
72110;BME280;59983;52.010;5.420;2023-02-28T12:26:36;103140.13;;;9.75;39.79
72110;BME280;59983;52.010;5.420;2023-02-28T12:32:17;103142.44;;;9.57;40.04
72110;BME280;59983;52.010;5.420;2023-02-28T12:34:52;103139.13;;;9.65;39.17
72110;BME280;59983;52.010;5.420;2023-02-28T12:37:24;103139.84;;;9.81;39.22
72110;BME280;59983;52.010;5.420;2023-02-28T12:40:03;103139.53;;;9.83;39.18
72110;BME280;59983;52.010;5.420;2023-02-28T12:42:36;103128.28;;;10.00;40.18
72110;BME280;59983;52.010;5.420;2023-02-28T12:45:10;103131.75;;;10.05;39.71
72110;BME280;59983;52.010;5.420;2023-02-28T12:47:42;103128.41;;;10.13;39.13
72110;BME280;59983;52.010;5.420;2023-02-28T12:50:11;103126.69;;;10.28;38.92
72110;BME280;59983;52.010;5.420;2023-02-28T12:58:13;103126.31;;;10.05;39.10
72110;BME280;59983;52.010;5.420;2023-02-28T13:03:35;103121.06;;;10.19;38.76
72110;BME280;59983;52.010;5.420;2023-02-28T13:09:15;103120.63;;;10.07;38.74
72110;BME280;59983;52.010;5.420;2023-02-28T13:11:47;103101.38;;;10.08;38.29
72110;BME280;59983;52.010;5.420;2023-02-28T13:14:34;103100.50;;;10.13;38.34
72110;BME280;59983;52.010;5.420;2023-02-28T13:22:20;103100.84;;;10.59;36.87
72110;BME280;59983;52.010;5.420;2023-02-28T13:25:02;103104.16;;;10.56;37.50
72110;BME280;59983;52.010;5.420;2023-02-28T13:27:34;103095.16;;;10.61;37.15
72110;BME280;59983;52.010;5.420;2023-02-28T13:33:28;103088.53;;;10.67;35.27
72110;BME280;59983;52.010;5.420;2023-02-28T13:38:59;103096.78;;;11.04;35.58
72110;BME280;59983;52.010;5.420;2023-02-28T13:58:03;103079.28;;;12.13;35.00
72110;BME280;59983;52.010;5.420;2023-02-28T14:03:54;103073.00;;;11.85;34.21
72110;BME280;59983;52.010;5.420;2023-02-28T14:06:27;103057.56;;;11.81;34.09
72110;BME280;59983;52.010;5.420;2023-02-28T14:09:00;103055.81;;;12.04;33.93
72110;BME280;59983;52.010;5.420;2023-02-28T14:11:32;103057.50;;;12.27;34.06
72110;BME280;59983;52.010;5.420;2023-02-28T14:14:00;103064.16;;;12.76;33.98
72110;BME280;59983;52.010;5.420;2023-02-28T14:16:44;103062.50;;;13.39;32.60
72110;BME280;59983;52.010;5.420;2023-02-28T14:19:21;103048.47;;;14.07;31.32
72110;BME280;59983;52.010;5.420;2023-02-28T14:38:29;103045.16;;;15.54;28.04
72110;BME280;59983;52.010;5.420;2023-02-28T14:40:58;103047.28;;;15.31;28.79
72110;BME280;59983;52.010;5.420;2023-02-28T14:43:28;103043.09;;;15.42;28.40
72110;BME280;59983;52.010;5.420;2023-02-28T14:46:02;103036.78;;;15.59;27.55
72110;BME280;59983;52.010;5.420;2023-02-28T14:48:30;103040.34;;;15.51;27.80
72110;BME280;59983;52.010;5.420;2023-02-28T14:50:59;103041.34;;;15.64;26.70
72110;BME280;59983;52.010;5.420;2023-02-28T14:53:35;103050.50;;;15.42;27.29
72110;BME280;59983;52.010;5.420;2023-02-28T14:56:03;103043.09;;;15.42;27.65
72110;BME280;59983;52.010;5.420;2023-02-28T14:58:31;103042.44;;;15.28;25.52
72110;BME280;59983;52.010;5.420;2023-02-28T15:01:02;103047.75;;;14.81;27.80
72110;BME280;59983;52.010;5.420;2023-02-28T15:03:39;103039.50;;;14.55;28.69
72110;BME280;59983;52.010;5.420;2023-02-28T15:06:13;103040.97;;;14.22;28.65
72110;BME280;59983;52.010;5.420;2023-02-28T15:08:40;103043.19;;;14.11;29.30
72110;BME280;59983;52.010;5.420;2023-02-28T15:11:17;103038.16;;;14.44;29.54
72110;BME280;59983;52.010;5.420;2023-02-28T15:13:50;103042.63;;;14.40;29.68
72110;BME280;59983;52.010;5.420;2023-02-28T15:16:20;103041.91;;;14.08;30.50
72110;BME280;59983;52.010;5.420;2023-02-28T15:18:59;103046.69;;;13.72;30.20
72110;BME280;59983;52.010;5.420;2023-02-28T15:21:37;103047.91;;;13.35;30.35
72110;BME280;59983;52.010;5.420;2023-02-28T15:24:30;103045.75;;;12.95;31.00
72110;BME280;59983;52.010;5.420;2023-02-28T15:27:03;103054.28;;;12.66;32.11
72110;BME280;59983;52.010;5.420;2023-02-28T15:29:37;103052.69;;;12.52;32.01
72110;BME280;59983;52.010;5.420;2023-02-28T15:32:23;103048.25;;;12.56;32.36